sensor_id;sensor_type;location;lat;lon;timestamp;pressure;altitude;pressure_sealevel;temperature;humidity
11077;BME280;5591;42.626;23.380;2023-05-18T00:01:19;93583.72;;;13.30;100.00
11077;BME280;5591;42.626;23.380;2023-05-18T00:03:46;93697.81;;;13.91;100.00
11077;BME280;5591;42.626;23.380;2023-05-18T00:06:13;93661.69;;;13.92;100.00
11077;BME280;5591;42.626;23.380;2023-05-18T00:08:40;93693.19;;;13.87;100.00
11077;BME280;5591;42.626;23.380;2023-05-18T00:11:07;93654.66;;;13.86;100.00
11077;BME280;5591;42.626;23.380;2023-05-18T00:13:34;93662.28;;;13.76;100.00
11077;BME280;5591;42.626;23.380;2023-05-18T00:16:00;93666.25;;;13.49;100.00
11077;BME280;5591;42.626;23.380;2023-05-18T00:18:29;93664.03;;;13.46;100.00
11077;BME280;5591;42.626;23.380;2023-05-18T00:20:55;93657.09;;;13.33;100.00
11077;BME280;5591;42.626;23.380;2023-05-18T00:23:25;93637.47;;;13.47;100.00
11077;BME280;5591;42.626;23.380;2023-05-18T00:25:55;93643.88;;;13.87;100.00
11077;BME280;5591;42.626;23.380;2023-05-18T00:28:22;93642.66;;;13.54;100.00
11077;BME280;5591;42.626;23.380;2023-05-18T00:30:49;93654.41;;;13.58;100.00
11077;BME280;5591;42.626;23.380;2023-05-18T00:33:15;93657.75;;;13.83;100.00
11077;BME280;5591;42.626;23.380;2023-05-18T00:35:44;93654.91;;;13.66;100.00
11077;BME280;5591;42.626;23.380;2023-05-18T00:38:11;93660.00;;;13.79;100.00
11077;BME280;5591;42.626;23.380;2023-05-18T00:40:40;93653.59;;;14.05;100.00
11077;BME280;5591;42.626;23.380;2023-05-18T00:43:07;93666.16;;;13.91;100.00
11077;BME280;5591;42.626;23.380;2023-05-18T00:45:34;93657.06;;;13.51;100.00
11077;BME280;5591;42.626;23.380;2023-05-18T00:48:00;93656.94;;;13.46;100.00
11077;BME280;5591;42.626;23.380;2023-05-18T00:50:27;93654.97;;;13.42;100.00
11077;BME280;5591;42.626;23.380;2023-05-18T00:52:55;93651.34;;;13.72;100.00
11077;BME280;5591;42.626;23.380;2023-05-18T00:55:22;93643.97;;;13.63;100.00
11077;BME280;5591;42.626;23.380;2023-05-18T00:57:49;93643.31;;;13.67;100.00
11077;BME280;5591;42.626;23.380;2023-05-18T01:00:16;93656.41;;;13.92;100.00
11077;BME280;5591;42.626;23.380;2023-05-18T01:02:44;93647.06;;;13.42;100.00
11077;BME280;5591;42.626;23.380;2023-05-18T01:05:11;93644.25;;;13.55;100.00
11077;BME280;5591;42.626;23.380;2023-05-18T01:07:39;93645.28;;;13.54;100.00
11077;BME280;5591;42.626;23.380;2023-05-18T01:10:10;93649.69;;;13.60;100.00
11077;BME280;5591;42.626;23.380;2023-05-18T01:12:42;93649.75;;;13.71;100.00
11077;BME280;5591;42.626;23.380;2023-05-18T01:15:13;93652.19;;;13.73;100.00
11077;BME280;5591;42.626;23.380;2023-05-18T01:17:49;93658.78;;;13.64;100.00
11077;BME280;5591;42.626;23.380;2023-05-18T01:20:21;93654.06;;;13.84;100.00
11077;BME280;5591;42.626;23.380;2023-05-18T01:23:11;93631.91;;;13.73;100.00
11077;BME280;5591;42.626;23.380;2023-05-18T01:25:59;93664.31;;;13.92;100.00
11077;BME280;5591;42.626;23.380;2023-05-18T01:28:28;93665.94;;;13.93;100.00
11077;BME280;5591;42.626;23.380;2023-05-18T01:30:56;93659.09;;;14.21;100.00
11077;BME280;5591;42.626;23.380;2023-05-18T01:33:23;93660.50;;;14.35;100.00
11077;BME280;5591;42.626;23.380;2023-05-18T01:35:50;93657.72;;;14.48;100.00
11077;BME280;5591;42.626;23.380;2023-05-18T01:38:19;93662.31;;;14.23;100.00
11077;BME280;5591;42.626;23.380;2023-05-18T01:40:53;93657.88;;;14.35;100.00
11077;BME280;5591;42.626;23.380;2023-05-18T01:43:28;93646.91;;;14.50;100.00
11077;BME280;5591;42.626;23.380;2023-05-18T01:46:01;93663.22;;;14.17;100.00
11077;BME280;5591;42.626;23.380;2023-05-18T01:48:31;93655.88;;;14.01;100.00
11077;BME280;5591;42.626;23.380;2023-05-18T01:51:01;93649.72;;;14.07;100.00
11077;BME280;5591;42.626;23.380;2023-05-18T01:53:34;93657.75;;;14.12;100.00
11077;BME280;5591;42.626;23.380;2023-05-18T01:56:05;93658.91;;;14.34;100.00
11077;BME280;5591;42.626;23.380;2023-05-18T01:58:35;93663.00;;;14.01;100.00
11077;BME280;5591;42.626;23.380;2023-05-18T02:01:03;93569.00;;;13.59;100.00
11077;BME280;5591;42.626;23.380;2023-05-18T02:03:30;93666.88;;;13.98;100.00
11077;BME280;5591;42.626;23.380;2023-05-18T02:05:57;93663.81;;;14.31;100.00
11077;BME280;5591;42.626;23.380;2023-05-18T02:08:24;93659.84;;;14.40;100.00
11077;BME280;5591;42.626;23.380;2023-05-18T02:10:51;93654.84;;;14.02;100.00
11077;BME280;5591;42.626;23.380;2023-05-18T02:13:17;93663.97;;;13.88;100.00
11077;BME280;5591;42.626;23.380;2023-05-18T02:15:46;93670.09;;;14.00;100.00
11077;BME280;5591;42.626;23.380;2023-05-18T02:18:12;93667.63;;;14.05;100.00
11077;BME280;5591;42.626;23.380;2023-05-18T02:20:40;93661.38;;;14.18;100.00
11077;BME280;5591;42.626;23.380;2023-05-18T02:23:07;93660.34;;;14.19;100.00
11077;BME280;5591;42.626;23.380;2023-05-18T02:25:34;93658.38;;;13.96;100.00
11077;BME280;5591;42.626;23.380;2023-05-18T02:28:01;93665.53;;;14.25;100.00
11077;BME280;5591;42.626;23.380;2023-05-18T02:30:28;93662.75;;;14.20;100.00
11077;BME280;5591;42.626;23.380;2023-05-18T02:32:58;93657.72;;;14.60;100.00
11077;BME280;5591;42.626;23.380;2023-05-18T02:35:25;93664.22;;;14.46;100.00
11077;BME280;5591;42.626;23.380;2023-05-18T02:37:52;93668.84;;;14.50;100.00
11077;BME280;5591;42.626;23.380;2023-05-18T02:40:20;93667.41;;;14.36;100.00
11077;BME280;5591;42.626;23.380;2023-05-18T02:42:46;93674.84;;;14.10;100.00
11077;BME280;5591;42.626;23.380;2023-05-18T02:45:13;93675.59;;;14.46;100.00
11077;BME280;5591;42.626;23.380;2023-05-18T02:47:40;93683.31;;;14.18;100.00
11077;BME280;5591;42.626;23.380;2023-05-18T02:50:10;93678.72;;;14.25;100.00
11077;BME280;5591;42.626;23.380;2023-05-18T02:52:37;93681.34;;;14.25;100.00
11077;BME280;5591;42.626;23.380;2023-05-18T02:55:04;93683.50;;;14.46;100.00
11077;BME280;5591;42.626;23.380;2023-05-18T02:57:31;93683.25;;;14.36;100.00
11077;BME280;5591;42.626;23.380;2023-05-18T02:59:58;93701.78;;;14.48;100.00
11077;BME280;5591;42.626;23.380;2023-05-18T03:02:25;93698.41;;;14.82;100.00
11077;BME280;5591;42.626;23.380;2023-05-18T03:04:52;93701.34;;;15.03;100.00
11077;BME280;5591;42.626;23.380;2023-05-18T03:07:23;93713.84;;;14.96;100.00
11077;BME280;5591;42.626;23.380;2023-05-18T03:09:51;93718.56;;;14.94;100.00
11077;BME280;5591;42.626;23.380;2023-05-18T03:12:18;93715.72;;;15.07;100.00
11077;BME280;5591;42.626;23.380;2023-05-18T03:14:45;93712.38;;;15.11;100.00
11077;BME280;5591;42.626;23.380;2023-05-18T03:17:12;93723.31;;;15.26;100.00
11077;BME280;5591;42.626;23.380;2023-05-18T03:19:39;93731.66;;;15.00;100.00
11077;BME280;5591;42.626;23.380;2023-05-18T03:22:06;93728.66;;;14.97;100.00
11077;BME280;5591;42.626;23.380;2023-05-18T03:24:34;93730.69;;;14.72;100.00
11077;BME280;5591;42.626;23.380;2023-05-18T03:27:04;93727.88;;;14.67;100.00
11077;BME280;5591;42.626;23.380;2023-05-18T03:29:31;93729.13;;;14.53;100.00
11077;BME280;5591;42.626;23.380;2023-05-18T03:31:58;93682.06;;;13.85;100.00
11077;BME280;5591;42.626;23.380;2023-05-18T03:34:25;93723.47;;;14.50;100.00
11077;BME280;5591;42.626;23.380;2023-05-18T03:36:52;93730.53;;;14.67;100.00
11077;BME280;5591;42.626;23.380;2023-05-18T03:39:19;93738.53;;;14.49;100.00
11077;BME280;5591;42.626;23.380;2023-05-18T03:41:47;93740.84;;;14.87;100.00
11077;BME280;5591;42.626;23.380;2023-05-18T03:44:14;93741.59;;;14.76;100.00
11077;BME280;5591;42.626;23.380;2023-05-18T03:46:40;93748.19;;;14.55;100.00
11077;BME280;5591;42.626;23.380;2023-05-18T03:49:07;93738.38;;;14.74;100.00
11077;BME280;5591;42.626;23.380;2023-05-18T03:51:34;93739.28;;;14.79;100.00
11077;BME280;5591;42.626;23.380;2023-05-18T03:54:01;93748.63;;;14.23;100.00
11077;BME280;5591;42.626;23.380;2023-05-18T03:56:27;93742.06;;;14.07;100.00
11077;BME280;5591;42.626;23.380;2023-05-18T03:58:57;93742.41;;;14.47;100.00
11077;BME280;5591;42.626;23.380;2023-05-18T04:01:24;93753.75;;;14.47;100.00
11077;BME280;5591;42.626;23.380;2023-05-18T04:03:54;93793.34;;;14.65;100.00
11077;BME280;5591;42.626;23.380;2023-05-18T04:06:22;93792.38;;;14.48;100.00
11077;BME280;5591;42.626;23.380;2023-05-18T04:08:50;93774.28;;;14.63;100.00
11077;BME280;5591;42.626;23.380;2023-05-18T04:11:17;93760.69;;;14.30;100.00
11077;BME280;5591;42.626;23.380;2023-05-18T04:13:44;93765.97;;;14.30;100.00
11077;BME280;5591;42.626;23.380;2023-05-18T04:16:12;93772.88;;;14.31;100.00
11077;BME280;5591;42.626;23.380;2023-05-18T04:18:40;93765.94;;;14.12;100.00
11077;BME280;5591;42.626;23.380;2023-05-18T04:21:07;93771.47;;;14.11;100.00
11077;BME280;5591;42.626;23.380;2023-05-18T04:23:36;93768.53;;;13.83;100.00
11077;BME280;5591;42.626;23.380;2023-05-18T04:26:05;93729.72;;;13.47;100.00
11077;BME280;5591;42.626;23.380;2023-05-18T04:28:32;93758.09;;;13.88;100.00
11077;BME280;5591;42.626;23.380;2023-05-18T04:30:58;93757.75;;;14.02;100.00
11077;BME280;5591;42.626;23.380;2023-05-18T04:33:27;93758.47;;;14.09;100.00
11077;BME280;5591;42.626;23.380;2023-05-18T04:35:54;93769.81;;;14.10;100.00
11077;BME280;5591;42.626;23.380;2023-05-18T04:38:23;93770.31;;;14.25;100.00
11077;BME280;5591;42.626;23.380;2023-05-18T04:40:50;93766.94;;;14.36;100.00
11077;BME280;5591;42.626;23.380;2023-05-18T04:43:18;93775.50;;;14.31;100.00
11077;BME280;5591;42.626;23.380;2023-05-18T04:45:45;93776.25;;;14.38;100.00
11077;BME280;5591;42.626;23.380;2023-05-18T04:48:15;93768.59;;;14.48;100.00
11077;BME280;5591;42.626;23.380;2023-05-18T04:50:44;93783.63;;;14.48;100.00
11077;BME280;5591;42.626;23.380;2023-05-18T04:53:11;93783.63;;;14.30;100.00
11077;BME280;5591;42.626;23.380;2023-05-18T04:55:42;93789.38;;;14.27;100.00
11077;BME280;5591;42.626;23.380;2023-05-18T04:58:10;93795.41;;;13.91;100.00
11077;BME280;5591;42.626;23.380;2023-05-18T05:00:37;93794.56;;;14.51;100.00
11077;BME280;5591;42.626;23.380;2023-05-18T05:03:04;93800.50;;;14.47;100.00
11077;BME280;5591;42.626;23.380;2023-05-18T05:05:31;93801.56;;;14.57;100.00
11077;BME280;5591;42.626;23.380;2023-05-18T05:07:59;93805.94;;;14.34;100.00
11077;BME280;5591;42.626;23.380;2023-05-18T05:10:26;93812.38;;;14.56;100.00
11077;BME280;5591;42.626;23.380;2023-05-18T05:12:53;93814.00;;;14.86;100.00
11077;BME280;5591;42.626;23.380;2023-05-18T05:15:20;93813.41;;;14.55;100.00
11077;BME280;5591;42.626;23.380;2023-05-18T05:17:47;93817.22;;;14.59;100.00
11077;BME280;5591;42.626;23.380;2023-05-18T05:20:14;93815.69;;;14.81;100.00
11077;BME280;5591;42.626;23.380;2023-05-18T05:22:41;93813.81;;;14.70;100.00
11077;BME280;5591;42.626;23.380;2023-05-18T05:25:09;93822.66;;;14.93;100.00
11077;BME280;5591;42.626;23.380;2023-05-18T05:27:36;93710.38;;;14.25;100.00
11077;BME280;5591;42.626;23.380;2023-05-18T05:30:03;93829.72;;;14.81;100.00
11077;BME280;5591;42.626;23.380;2023-05-18T05:32:31;93828.31;;;14.97;100.00
11077;BME280;5591;42.626;23.380;2023-05-18T05:34:57;93835.94;;;14.21;100.00
11077;BME280;5591;42.626;23.380;2023-05-18T05:37:24;93841.34;;;14.26;100.00
11077;BME280;5591;42.626;23.380;2023-05-18T05:39:51;93836.91;;;14.74;100.00
11077;BME280;5591;42.626;23.380;2023-05-18T05:42:19;93834.09;;;14.58;100.00
11077;BME280;5591;42.626;23.380;2023-05-18T05:44:46;93723.09;;;13.81;100.00
11077;BME280;5591;42.626;23.380;2023-05-18T05:47:13;93843.31;;;14.49;100.00
11077;BME280;5591;42.626;23.380;2023-05-18T05:49:40;93725.22;;;13.90;100.00
11077;BME280;5591;42.626;23.380;2023-05-18T05:52:06;93841.78;;;15.06;100.00
11077;BME280;5591;42.626;23.380;2023-05-18T05:54:33;93836.56;;;15.29;100.00
11077;BME280;5591;42.626;23.380;2023-05-18T05:57:00;93844.50;;;15.29;100.00
11077;BME280;5591;42.626;23.380;2023-05-18T05:59:29;93840.78;;;15.19;100.00
11077;BME280;5591;42.626;23.380;2023-05-18T06:01:56;93874.63;;;15.28;100.00
11077;BME280;5591;42.626;23.380;2023-05-18T06:04:23;93839.56;;;14.74;100.00
11077;BME280;5591;42.626;23.380;2023-05-18T06:06:49;93841.56;;;14.61;100.00
11077;BME280;5591;42.626;23.380;2023-05-18T06:09:16;93841.34;;;14.62;100.00
11077;BME280;5591;42.626;23.380;2023-05-18T06:11:43;93846.34;;;14.52;100.00
11077;BME280;5591;42.626;23.380;2023-05-18T06:14:10;93851.47;;;14.65;100.00
11077;BME280;5591;42.626;23.380;2023-05-18T06:16:38;93854.09;;;14.47;100.00
11077;BME280;5591;42.626;23.380;2023-05-18T06:19:05;93851.34;;;14.90;100.00
11077;BME280;5591;42.626;23.380;2023-05-18T06:21:32;93862.78;;;15.01;100.00
11077;BME280;5591;42.626;23.380;2023-05-18T06:23:59;93865.44;;;14.84;100.00
11077;BME280;5591;42.626;23.380;2023-05-18T06:26:26;93859.94;;;15.14;100.00
11077;BME280;5591;42.626;23.380;2023-05-18T06:28:52;93860.56;;;14.69;100.00
11077;BME280;5591;42.626;23.380;2023-05-18T06:31:19;93862.00;;;14.83;100.00
11077;BME280;5591;42.626;23.380;2023-05-18T06:33:48;93860.25;;;14.77;100.00
11077;BME280;5591;42.626;23.380;2023-05-18T06:36:15;93868.94;;;14.95;100.00
11077;BME280;5591;42.626;23.380;2023-05-18T06:38:41;93871.47;;;14.91;100.00
11077;BME280;5591;42.626;23.380;2023-05-18T06:41:08;93924.00;;;14.98;100.00
11077;BME280;5591;42.626;23.380;2023-05-18T06:43:35;93873.16;;;14.85;100.00
11077;BME280;5591;42.626;23.380;2023-05-18T06:46:02;93874.88;;;15.09;100.00
11077;BME280;5591;42.626;23.380;2023-05-18T06:48:28;93879.38;;;14.91;100.00
11077;BME280;5591;42.626;23.380;2023-05-18T06:50:57;93850.00;;;14.69;100.00
11077;BME280;5591;42.626;23.380;2023-05-18T06:53:23;93881.16;;;14.97;100.00
11077;BME280;5591;42.626;23.380;2023-05-18T06:55:50;93887.97;;;15.33;100.00
11077;BME280;5591;42.626;23.380;2023-05-18T06:58:17;93884.63;;;15.67;100.00
11077;BME280;5591;42.626;23.380;2023-05-18T07:00:44;93899.50;;;15.39;100.00
11077;BME280;5591;42.626;23.380;2023-05-18T07:03:10;93899.56;;;15.62;100.00
11077;BME280;5591;42.626;23.380;2023-05-18T07:05:37;93898.09;;;15.66;100.00
11077;BME280;5591;42.626;23.380;2023-05-18T07:08:05;93911.34;;;15.18;100.00
11077;BME280;5591;42.626;23.380;2023-05-18T07:10:32;93946.81;;;15.11;100.00
11077;BME280;5591;42.626;23.380;2023-05-18T07:13:00;93909.97;;;14.98;100.00
11077;BME280;5591;42.626;23.380;2023-05-18T07:15:27;93916.75;;;15.23;100.00
11077;BME280;5591;42.626;23.380;2023-05-18T07:17:53;93914.22;;;15.35;100.00
11077;BME280;5591;42.626;23.380;2023-05-18T07:20:21;93924.59;;;15.00;100.00
11077;BME280;5591;42.626;23.380;2023-05-18T07:22:48;93922.06;;;15.23;100.00
11077;BME280;5591;42.626;23.380;2023-05-18T07:25:16;93977.81;;;14.86;100.00
11077;BME280;5591;42.626;23.380;2023-05-18T07:27:43;93922.16;;;14.99;100.00
11077;BME280;5591;42.626;23.380;2023-05-18T07:30:10;93927.97;;;14.72;100.00
11077;BME280;5591;42.626;23.380;2023-05-18T07:32:37;93931.88;;;14.69;100.00
11077;BME280;5591;42.626;23.380;2023-05-18T07:35:04;93933.47;;;14.88;100.00
11077;BME280;5591;42.626;23.380;2023-05-18T07:37:31;93934.41;;;15.11;100.00
11077;BME280;5591;42.626;23.380;2023-05-18T07:39:58;93908.25;;;14.56;100.00
11077;BME280;5591;42.626;23.380;2023-05-18T07:42:26;93943.34;;;14.81;100.00
11077;BME280;5591;42.626;23.380;2023-05-18T07:44:53;93949.78;;;14.85;100.00
11077;BME280;5591;42.626;23.380;2023-05-18T07:47:20;93943.19;;;15.71;100.00
11077;BME280;5591;42.626;23.380;2023-05-18T07:49:47;93953.13;;;15.87;100.00
11077;BME280;5591;42.626;23.380;2023-05-18T07:52:14;93962.53;;;15.06;100.00
11077;BME280;5591;42.626;23.380;2023-05-18T07:54:41;93973.22;;;15.29;100.00
11077;BME280;5591;42.626;23.380;2023-05-18T07:57:08;93969.44;;;15.25;100.00
11077;BME280;5591;42.626;23.380;2023-05-18T07:59:36;93988.75;;;14.90;100.00
11077;BME280;5591;42.626;23.380;2023-05-18T08:02:03;93980.00;;;15.07;100.00
11077;BME280;5591;42.626;23.380;2023-05-18T08:04:30;93989.28;;;14.80;100.00
11077;BME280;5591;42.626;23.380;2023-05-18T08:06:57;93991.94;;;15.27;100.00
11077;BME280;5591;42.626;23.380;2023-05-18T08:09:25;94012.91;;;14.93;100.00
11077;BME280;5591;42.626;23.380;2023-05-18T08:11:52;94000.50;;;14.93;100.00
11077;BME280;5591;42.626;23.380;2023-05-18T08:14:19;94010.88;;;15.31;100.00
11077;BME280;5591;42.626;23.380;2023-05-18T08:16:47;94014.13;;;15.33;100.00
11077;BME280;5591;42.626;23.380;2023-05-18T08:19:14;94008.13;;;15.01;100.00
11077;BME280;5591;42.626;23.380;2023-05-18T08:21:41;94016.88;;;15.02;100.00
11077;BME280;5591;42.626;23.380;2023-05-18T08:24:09;94018.47;;;15.21;100.00
11077;BME280;5591;42.626;23.380;2023-05-18T08:26:36;93982.66;;;14.71;100.00
11077;BME280;5591;42.626;23.380;2023-05-18T08:29:04;94015.25;;;14.83;100.00
11077;BME280;5591;42.626;23.380;2023-05-18T08:31:34;94028.25;;;15.02;100.00
11077;BME280;5591;42.626;23.380;2023-05-18T08:34:04;94086.50;;;15.32;100.00
11077;BME280;5591;42.626;23.380;2023-05-18T08:36:31;94038.06;;;14.95;100.00
11077;BME280;5591;42.626;23.380;2023-05-18T08:38:58;93929.66;;;14.30;100.00
11077;BME280;5591;42.626;23.380;2023-05-18T08:41:29;94044.38;;;15.37;100.00
11077;BME280;5591;42.626;23.380;2023-05-18T08:44:00;94044.47;;;15.60;100.00
11077;BME280;5591;42.626;23.380;2023-05-18T08:46:32;94049.13;;;15.46;100.00
11077;BME280;5591;42.626;23.380;2023-05-18T08:49:00;94053.25;;;15.42;100.00
11077;BME280;5591;42.626;23.380;2023-05-18T08:51:33;94054.94;;;15.37;100.00
11077;BME280;5591;42.626;23.380;2023-05-18T08:54:00;94092.66;;;15.26;100.00
11077;BME280;5591;42.626;23.380;2023-05-18T08:56:30;94065.81;;;15.47;100.00
11077;BME280;5591;42.626;23.380;2023-05-18T08:58:57;94071.56;;;15.44;100.00
11077;BME280;5591;42.626;23.380;2023-05-18T09:01:25;93980.84;;;15.07;100.00
11077;BME280;5591;42.626;23.380;2023-05-18T09:03:54;94072.19;;;15.57;100.00
11077;BME280;5591;42.626;23.380;2023-05-18T09:06:22;94080.66;;;15.66;100.00
11077;BME280;5591;42.626;23.380;2023-05-18T09:08:52;94072.84;;;16.00;100.00
11077;BME280;5591;42.626;23.380;2023-05-18T09:11:21;94072.78;;;16.48;100.00
11077;BME280;5591;42.626;23.380;2023-05-18T09:13:48;94080.78;;;15.53;100.00
11077;BME280;5591;42.626;23.380;2023-05-18T09:16:16;94086.25;;;15.15;100.00
11077;BME280;5591;42.626;23.380;2023-05-18T09:18:43;94083.25;;;15.12;100.00
11077;BME280;5591;42.626;23.380;2023-05-18T09:21:10;94081.47;;;15.06;100.00
11077;BME280;5591;42.626;23.380;2023-05-18T09:23:38;94085.84;;;15.36;100.00
11077;BME280;5591;42.626;23.380;2023-05-18T09:26:06;94088.00;;;14.86;100.00
11077;BME280;5591;42.626;23.380;2023-05-18T09:28:35;94083.25;;;15.12;100.00
11077;BME280;5591;42.626;23.380;2023-05-18T09:31:03;94067.41;;;14.70;100.00
11077;BME280;5591;42.626;23.380;2023-05-18T09:33:33;94076.59;;;15.45;100.00
11077;BME280;5591;42.626;23.380;2023-05-18T09:36:01;94072.63;;;15.36;100.00
11077;BME280;5591;42.626;23.380;2023-05-18T09:38:29;94081.09;;;15.45;100.00
11077;BME280;5591;42.626;23.380;2023-05-18T09:40:56;94092.56;;;15.57;100.00
11077;BME280;5591;42.626;23.380;2023-05-18T09:43:26;94089.47;;;15.42;100.00
11077;BME280;5591;42.626;23.380;2023-05-18T09:45:53;94098.72;;;15.51;100.00
11077;BME280;5591;42.626;23.380;2023-05-18T09:48:20;94095.94;;;15.46;100.00
11077;BME280;5591;42.626;23.380;2023-05-18T09:50:48;94104.88;;;15.63;100.00
11077;BME280;5591;42.626;23.380;2023-05-18T09:53:15;94098.88;;;15.56;100.00
11077;BME280;5591;42.626;23.380;2023-05-18T09:55:46;94106.94;;;15.43;100.00
11077;BME280;5591;42.626;23.380;2023-05-18T09:58:13;94107.50;;;15.27;100.00
11077;BME280;5591;42.626;23.380;2023-05-18T10:00:42;94101.06;;;15.41;100.00
11077;BME280;5591;42.626;23.380;2023-05-18T10:03:16;94105.69;;;15.45;100.00
11077;BME280;5591;42.626;23.380;2023-05-18T10:05:43;94104.06;;;15.80;100.00
11077;BME280;5591;42.626;23.380;2023-05-18T10:08:12;94098.78;;;16.10;100.00
11077;BME280;5591;42.626;23.380;2023-05-18T10:10:41;94119.88;;;15.87;100.00
11077;BME280;5591;42.626;23.380;2023-05-18T10:13:11;94118.72;;;15.65;100.00
11077;BME280;5591;42.626;23.380;2023-05-18T10:15:46;94144.19;;;15.77;100.00
11077;BME280;5591;42.626;23.380;2023-05-18T10:18:19;94122.81;;;15.97;100.00
11077;BME280;5591;42.626;23.380;2023-05-18T10:20:47;94119.44;;;16.49;100.00
11077;BME280;5591;42.626;23.380;2023-05-18T10:23:14;94074.06;;;16.16;100.00
11077;BME280;5591;42.626;23.380;2023-05-18T10:25:44;94120.72;;;17.10;100.00
11077;BME280;5591;42.626;23.380;2023-05-18T10:28:13;94123.59;;;17.20;100.00
11077;BME280;5591;42.626;23.380;2023-05-18T10:30:46;94114.47;;;17.16;100.00
11077;BME280;5591;42.626;23.380;2023-05-18T10:33:14;94126.22;;;17.32;100.00
11077;BME280;5591;42.626;23.380;2023-05-18T10:35:44;94131.88;;;17.24;100.00
11077;BME280;5591;42.626;23.380;2023-05-18T10:38:19;94132.63;;;16.67;100.00
11077;BME280;5591;42.626;23.380;2023-05-18T10:40:48;94135.09;;;15.55;100.00
11077;BME280;5591;42.626;23.380;2023-05-18T10:43:18;94133.53;;;15.84;100.00
11077;BME280;5591;42.626;23.380;2023-05-18T10:45:51;94163.44;;;16.50;100.00
11077;BME280;5591;42.626;23.380;2023-05-18T10:48:18;94142.84;;;16.93;100.00
11077;BME280;5591;42.626;23.380;2023-05-18T10:50:47;94107.75;;;16.91;100.00
11077;BME280;5591;42.626;23.380;2023-05-18T10:53:16;94151.03;;;17.14;100.00
11077;BME280;5591;42.626;23.380;2023-05-18T10:55:44;94154.69;;;17.02;100.00
11077;BME280;5591;42.626;23.380;2023-05-18T10:58:12;94156.31;;;16.91;100.00
11077;BME280;5591;42.626;23.380;2023-05-18T11:00:43;94160.50;;;17.33;100.00
11077;BME280;5591;42.626;23.380;2023-05-18T11:03:13;94167.22;;;17.59;100.00
11077;BME280;5591;42.626;23.380;2023-05-18T11:05:41;94164.56;;;17.47;100.00
11077;BME280;5591;42.626;23.380;2023-05-18T11:08:08;94161.22;;;17.52;100.00
11077;BME280;5591;42.626;23.380;2023-05-18T11:10:38;94172.75;;;17.68;100.00
11077;BME280;5591;42.626;23.380;2023-05-18T11:13:06;94173.28;;;17.82;100.00
11077;BME280;5591;42.626;23.380;2023-05-18T11:16:02;94169.31;;;18.07;100.00
11077;BME280;5591;42.626;23.380;2023-05-18T11:18:36;94175.28;;;18.65;100.00
11077;BME280;5591;42.626;23.380;2023-05-18T11:21:17;94175.03;;;18.67;100.00
11077;BME280;5591;42.626;23.380;2023-05-18T11:24:16;94087.81;;;17.57;100.00
11077;BME280;5591;42.626;23.380;2023-05-18T11:26:44;94192.78;;;17.87;100.00
11077;BME280;5591;42.626;23.380;2023-05-18T11:29:19;94193.63;;;17.65;100.00
11077;BME280;5591;42.626;23.380;2023-05-18T11:31:47;94197.44;;;17.46;100.00
11077;BME280;5591;42.626;23.380;2023-05-18T11:34:34;94206.88;;;16.90;100.00
11077;BME280;5591;42.626;23.380;2023-05-18T11:37:02;94200.63;;;16.73;100.00
11077;BME280;5591;42.626;23.380;2023-05-18T11:39:30;94196.69;;;16.64;100.00
11077;BME280;5591;42.626;23.380;2023-05-18T11:42:01;94090.63;;;15.64;100.00
11077;BME280;5591;42.626;23.380;2023-05-18T11:44:28;94194.22;;;16.33;100.00
11077;BME280;5591;42.626;23.380;2023-05-18T11:47:00;94196.22;;;16.67;100.00
11077;BME280;5591;42.626;23.380;2023-05-18T11:49:28;94204.25;;;16.90;100.00
11077;BME280;5591;42.626;23.380;2023-05-18T11:52:01;94197.31;;;16.89;100.00
11077;BME280;5591;42.626;23.380;2023-05-18T11:54:33;94199.81;;;16.72;100.00
11077;BME280;5591;42.626;23.380;2023-05-18T11:57:00;94197.41;;;17.23;100.00
11077;BME280;5591;42.626;23.380;2023-05-18T11:59:32;94198.25;;;16.94;100.00
11077;BME280;5591;42.626;23.380;2023-05-18T12:02:01;94202.66;;;17.12;100.00
11077;BME280;5591;42.626;23.380;2023-05-18T12:04:28;94195.66;;;17.06;100.00
11077;BME280;5591;42.626;23.380;2023-05-18T12:06:57;94189.09;;;17.20;100.00
11077;BME280;5591;42.626;23.380;2023-05-18T12:09:26;94209.31;;;17.44;100.00
11077;BME280;5591;42.626;23.380;2023-05-18T12:11:54;94196.41;;;17.36;100.00
11077;BME280;5591;42.626;23.380;2023-05-18T12:14:21;94193.03;;;17.29;100.00
11077;BME280;5591;42.626;23.380;2023-05-18T12:16:49;94182.38;;;17.06;100.00
11077;BME280;5591;42.626;23.380;2023-05-18T12:19:16;94199.44;;;16.69;100.00
11077;BME280;5591;42.626;23.380;2023-05-18T12:21:44;94206.16;;;16.24;100.00
11077;BME280;5591;42.626;23.380;2023-05-18T12:24:12;94204.25;;;16.13;100.00
11077;BME280;5591;42.626;23.380;2023-05-18T12:26:39;94197.13;;;15.95;100.00
11077;BME280;5591;42.626;23.380;2023-05-18T12:29:06;94202.19;;;16.15;100.00
11077;BME280;5591;42.626;23.380;2023-05-18T12:31:38;94226.06;;;16.44;100.00
11077;BME280;5591;42.626;23.380;2023-05-18T12:34:08;94108.16;;;16.24;100.00
11077;BME280;5591;42.626;23.380;2023-05-18T12:36:39;94197.00;;;16.56;100.00
11077;BME280;5591;42.626;23.380;2023-05-18T12:39:07;94192.94;;;16.53;100.00
11077;BME280;5591;42.626;23.380;2023-05-18T12:41:35;94193.63;;;16.78;100.00
11077;BME280;5591;42.626;23.380;2023-05-18T12:44:02;94190.94;;;16.67;100.00
11077;BME280;5591;42.626;23.380;2023-05-18T12:46:29;94202.88;;;16.99;100.00
11077;BME280;5591;42.626;23.380;2023-05-18T12:48:57;94197.31;;;16.77;100.00
11077;BME280;5591;42.626;23.380;2023-05-18T12:51:31;94199.66;;;16.97;100.00
11077;BME280;5591;42.626;23.380;2023-05-18T12:53:58;94202.81;;;17.17;100.00
11077;BME280;5591;42.626;23.380;2023-05-18T12:56:24;94199.97;;;16.89;100.00